| time (UTC) | temp F | wind direction | speed knots | gust knots | rain 1hr in | rain 24hr in | rain mn in | humidity % | barometer mb |
| 20260507083052 | 59 | 9 | 1.7 | 5.2 | 0.00 | 0.00 | 0.00 | 62 | 1015.0 |
| 20260507081551 | 58 | 324 | 2.6 | 7.8 | 0.00 | 0.00 | 0.00 | 61 | 1015.0 |
| 20260507080048 | 58 | 336 | 0.9 | 7.8 | 0.00 | 0.00 | 0.00 | 64 | 1014.9 |
| 20260507074557 | 58 | 74 | 2.6 | 7.8 | 0.00 | 0.00 | 0.00 | 60 | 1014.8 |
| 20260507073037 | 57 | 40 | 2.6 | 7.8 | 0.00 | 0.00 | 0.00 | 61 | 1014.8 |
| 20260507071534 | 56 | 38 | 2.6 | 7.8 | 0.00 | 0.00 | 0.00 | 63 | 1014.7 |
| 20260507070030 | 56 | 64 | 2.6 | 7.8 | 0.00 | 0.00 | 0.00 | 65 | 1014.6 |
| 20260507064525 | 54 | 333 | 0.9 | 5.2 | 0.00 | 0.00 | 0.00 | 75 | 1014.6 |
| 20260507063025 | 53 | 7 | 1.7 | 3.5 | 0.00 | 0.00 | 0.00 | 77 | 1014.6 |
| 20260507061517 | 52 | 36 | 0.9 | 3.5 | 0.00 | 0.00 | 0.00 | 82 | 1014.5 |
| 20260507060011 | 48 | 7 | 0.0 | 2.6 | 0.00 | 0.00 | 0.00 | 89 | 1014.5 |
| 20260507054512 | 44 | 358 | 0.9 | 1.7 | 0.00 | 0.00 | 0.00 | 90 | 1014.3 |
| 20260507053004 | 43 | 348 | 0.0 | 1.7 | 0.00 | 0.00 | 0.00 | 90 | 1014.2 |
| 20260507051600 | 42 | 339 | 0.0 | 1.7 | 0.00 | 0.00 | 0.00 | 90 | 1014.0 |
| 20260507050057 | 41 | 344 | 0.0 | 1.7 | 0.00 | 0.00 | 0.00 | 89 | 1014.0 |
| 20260507044557 | 41 | 344 | 0.0 | 2.6 | 0.00 | 0.00 | 0.00 | 89 | 1013.7 |
| 20260507043049 | 41 | 353 | 0.9 | 1.7 | 0.00 | 0.00 | 0.00 | 89 | 1013.6 |
| 20260507041551 | 40 | 28 | 0.0 | 1.7 | 0.00 | 0.00 | 0.00 | 89 | 1013.6 |
| 20260507040045 | 41 | 15 | 0.0 | 2.6 | 0.00 | 0.00 | 0.00 | 89 | 1013.5 |
| 20260507034551 | 41 | 353 | 0.9 | 1.7 | 0.00 | 0.00 | 0.00 | 89 | 1013.5 |
| 20260507033044 | 41 | 353 | 0.0 | 2.6 | 0.00 | 0.00 | 0.00 | 89 | 1013.4 |
| 20260507031551 | 41 | 19 | 0.0 | 2.6 | 0.00 | 0.00 | 0.00 | 89 | 1013.2 |
| 20260507030048 | 41 | 14 | 0.0 | 2.6 | 0.00 | 0.00 | 0.00 | 88 | 1013.2 |
| 20260507024542 | 41 | 11 | 0.0 | 1.7 | 0.00 | 0.00 | 0.00 | 88 | 1013.2 |
| 20260507023035 | 42 | 11 | 0.0 | 1.7 | 0.00 | 0.00 | 0.00 | 88 | 1013.2 |
| 20260507021535 | 41 | 17 | 0.0 | 2.6 | 0.00 | 0.00 | 0.00 | 88 | 1013.1 |
| 20260507020032 | 42 | 16 | 0.0 | 0.9 | 0.00 | 0.00 | 0.00 | 87 | 1013.0 |
| 20260507014544 | 42 | 16 | 0.0 | 1.7 | 0.00 | 0.00 | 0.00 | 86 | 1012.9 |
| 20260507013029 | 42 | 16 | 0.0 | 0.9 | 0.00 | 0.00 | 0.00 | 85 | 1012.8 |
| 20260507011529 | 42 | 16 | 0.0 | 1.7 | 0.00 | 0.00 | 0.00 | 85 | 1012.9 |
| 20260507010029 | 43 | 21 | 0.0 | 2.6 | 0.00 | 0.00 | 0.00 | 84 | 1012.8 |
| 20260507004524 | 44 | 28 | 0.0 | 1.7 | 0.00 | 0.00 | 0.00 | 84 | 1012.8 |
| 20260507003022 | 44 | 28 | 0.0 | 1.7 | 0.00 | 0.00 | 0.00 | 83 | 1012.8 |
| 20260507001525 | 45 | 55 | 0.0 | 2.6 | 0.00 | 0.00 | 0.00 | 83 | 1012.8 |
| 20260507000119 | 45 | 61 | 0.0 | 2.6 | 0.00 | 0.00 | 0.00 | 83 | 1012.8 |
| 20260506234517 | 45 | 66 | 0.9 | 6.1 | 0.00 | 0.00 | 0.00 | 83 | 1012.9 |
| 20260506233017 | 46 | 76 | 1.7 | 5.2 | 0.00 | 0.00 | 0.00 | 83 | 1012.9 |
| 20260506231514 | 46 | 65 | 0.9 | 4.3 | 0.00 | 0.00 | 0.00 | 83 | 1012.8 |
| 20260506230013 | 46 | 78 | 1.7 | 4.3 | 0.00 | 0.00 | 0.00 | 83 | 1012.8 |
| 20260506224510 | 46 | 84 | 1.7 | 4.3 | 0.00 | 0.00 | 0.00 | 83 | 1012.7 |
| 20260506223008 | 46 | 83 | 1.7 | 5.2 | 0.00 | 0.00 | 0.00 | 83 | 1012.6 |
| 20260506221507 | 46 | 96 | 1.7 | 7.0 | 0.00 | 0.00 | 0.00 | 82 | 1012.6 |
| 20260506220014 | 47 | 61 | 2.6 | 6.1 | 0.00 | 0.00 | 0.00 | 82 | 1012.5 |
| 20260506214502 | 47 | 87 | 3.5 | 7.8 | 0.00 | 0.00 | 0.00 | 82 | 1012.4 |
| 20260506213122 | 47 | 100 | 1.7 | 8.7 | 0.00 | 0.00 | 0.00 | 82 | 1012.3 |
| 20260506211557 | 48 | 90 | 3.5 | 8.7 | 0.00 | 0.00 | 0.00 | 82 | 1012.2 |
| 20260506210057 | 48 | 87 | 1.7 | 9.6 | 0.00 | 0.00 | 0.00 | 81 | 1012.1 |
| 20260506204555 | 49 | 54 | 1.7 | 8.7 | 0.00 | 0.00 | 0.00 | 81 | 1012.1 |
| 20260506203053 | 49 | 67 | 2.6 | 8.7 | 0.00 | 0.00 | 0.00 | 80 | 1011.9 |
| 20260506201552 | 50 | 54 | 2.6 | 8.7 | 0.00 | 0.00 | 0.00 | 79 | 1011.8 |
| 20260506200050 | 50 | 51 | 1.7 | 7.8 | 0.00 | 0.00 | 0.00 | 78 | 1011.7 |
| 20260506194550 | 50 | 336 | 0.9 | 4.3 | 0.00 | 0.00 | 0.00 | 78 | 1011.4 |
| 20260506193048 | 51 | 84 | 1.7 | 6.1 | 0.00 | 0.00 | 0.00 | 76 | 1011.3 |
| 20260506191545 | 51 | 53 | 0.9 | 4.3 | 0.00 | 0.00 | 0.00 | 75 | 1011.1 |
| 20260506190043 | 52 | 3 | 1.7 | 9.6 | 0.00 | 0.00 | 0.00 | 73 | 1010.9 |
| 20260506184542 | 53 | 27 | 1.7 | 9.6 | 0.00 | 0.00 | 0.00 | 71 | 1010.7 |
| 20260506183041 | 54 | 309 | 2.6 | 10.4 | 0.00 | 0.00 | 0.00 | 70 | 1010.6 |
| 20260506181539 | 55 | 110 | 1.7 | 9.6 | 0.00 | 0.00 | 0.00 | 67 | 1010.5 |
| 20260506180046 | 56 | 47 | 2.6 | 12.2 | 0.00 | 0.00 | 0.00 | 64 | 1010.3 |
| 20260506174541 | 55 | 312 | 0.9 | 9.6 | 0.00 | 0.00 | 0.00 | 66 | 1010.1 |
| 20260506173038 | 55 | 68 | 4.3 | 11.3 | 0.00 | 0.00 | 0.00 | 65 | 1009.9 |
| 20260506171537 | 55 | 77 | 3.5 | 9.6 | 0.00 | 0.00 | 0.00 | 65 | 1009.9 |
| 20260506170034 | 56 | 52 | 2.6 | 11.3 | 0.00 | 0.00 | 0.00 | 65 | 1009.8 |
| 20260506164534 | 56 | 96 | 4.3 | 13.9 | 0.00 | 0.00 | 0.00 | 65 | 1009.8 |
| 20260506163055 | 57 | 54 | 6.1 | 13.9 | 0.00 | 0.00 | 0.00 | 64 | 1009.6 |
| 20260506161534 | 58 | 51 | 2.6 | 13.0 | 0.00 | 0.00 | 0.00 | 66 | 1009.6 |
| 20260506160033 | 59 | 46 | 4.3 | 11.3 | 0.00 | 0.00 | 0.00 | 63 | 1009.7 |
| 20260506154531 | 60 | 38 | 4.3 | 10.4 | 0.00 | 0.00 | 0.00 | 63 | 1009.5 |
| 20260506153031 | 60 | 83 | 2.6 | 9.6 | 0.00 | 0.00 | 0.00 | 64 | 1009.5 |
| 20260506151530 | 61 | 136 | 3.5 | 11.3 | 0.00 | 0.00 | 0.00 | 63 | 1009.4 |
| 20260506150029 | 60 | 33 | 5.2 | 16.5 | 0.00 | 0.00 | 0.00 | 64 | 1009.4 |
| 20260506144528 | 61 | 153 | 4.3 | 12.2 | 0.00 | 0.00 | 0.00 | 66 | 1009.4 |
| 20260506143035 | 58 | 30 | 4.3 | 13.9 | 0.00 | 0.00 | 0.00 | 68 | 1009.3 |
| 20260506141529 | 58 | 88 | 3.5 | 16.5 | 0.00 | 0.00 | 0.00 | 67 | 1009.3 |
| 20260506140027 | 58 | 243 | 1.7 | 10.4 | 0.00 | 0.00 | 0.00 | 65 | 1009.2 |
| 20260506134526 | 60 | 172 | 3.5 | 12.2 | 0.00 | 0.00 | 0.00 | 63 | 1009.2 |
| 20260506133026 | 60 | 157 | 4.3 | 12.2 | 0.00 | 0.00 | 0.00 | 64 | 1009.1 |
| 20260506131524 | 59 | 24 | 3.5 | 9.6 | 0.00 | 0.00 | 0.00 | 68 | 1009.0 |
| 20260506130024 | 58 | 92 | 2.6 | 11.3 | 0.00 | 0.00 | 0.00 | 70 | 1009.0 |
| 20260506124523 | 58 | 259 | 1.7 | 13.9 | 0.00 | 0.00 | 0.00 | 69 | 1009.1 |
| 20260506123022 | 59 | 36 | 2.6 | 10.4 | 0.00 | 0.00 | 0.00 | 67 | 1008.9 |
| 20260506121519 | 59 | 61 | 4.3 | 10.4 | 0.00 | 0.00 | 0.00 | 66 | 1008.9 |
| 20260506120019 | 59 | 270 | 2.6 | 11.3 | 0.00 | 0.00 | 0.00 | 66 | 1008.9 |
| 20260506114518 | 59 | 87 | 4.3 | 10.4 | 0.00 | 0.00 | 0.00 | 66 | 1008.9 |
| 20260506113018 | 59 | 96 | 5.2 | 11.3 | 0.00 | 0.00 | 0.00 | 67 | 1008.8 |
| 20260506111517 | 58 | 81 | 3.5 | 13.0 | 0.00 | 0.00 | 0.00 | 63 | 1008.8 |
| 20260506110015 | 59 | 63 | 4.3 | 10.4 | 0.00 | 0.00 | 0.00 | 66 | 1008.8 |
| 20260506104515 | 58 | 21 | 5.2 | 16.5 | 0.00 | 0.00 | 0.00 | 67 | 1008.8 |
| 20260506103015 | 59 | 58 | 5.2 | 14.8 | 0.00 | 0.00 | 0.00 | 67 | 1008.8 |
| 20260506101511 | 59 | 63 | 2.6 | 12.2 | 0.00 | 0.00 | 0.00 | 69 | 1008.8 |
| 20260506100009 | 58 | 74 | 5.2 | 12.2 | 0.00 | 0.00 | 0.00 | 69 | 1008.7 |
| 20260506094506 | 57 | 59 | 2.6 | 13.9 | 0.00 | 0.00 | 0.00 | 72 | 1008.7 |
| 20260506093005 | 56 | 86 | 2.6 | 12.2 | 0.00 | 0.00 | 0.00 | 76 | 1008.6 |
| 20260506091502 | 55 | 65 | 1.7 | 10.4 | 0.00 | 0.00 | 0.00 | 77 | 1008.7 |
| 20260506090001 | 54 | 113 | 4.3 | 12.2 | 0.00 | 0.00 | 0.00 | 76 | 1008.6 |
| 20260506084501 | 54 | 63 | 4.3 | 11.3 | 0.00 | 0.00 | 0.00 | 75 | 1008.6 |